createdAt,value
2022-10-17T00:03:38.042Z,2.05
2022-10-17T00:07:40.043Z,2.13
2022-10-17T00:11:42.118Z,1.83
2022-10-17T00:15:44.883Z,1.80
2022-10-17T00:19:46.948Z,1.88
2022-10-17T00:23:49.192Z,1.60
2022-10-17T00:27:51.206Z,1.85
2022-10-17T00:31:57.331Z,1.83
2022-10-17T00:36:26.346Z,2.05
2022-10-17T00:40:28.727Z,1.90
2022-10-17T00:44:30.726Z,1.95
2022-10-17T00:48:32.849Z,1.80
2022-10-17T00:52:35.392Z,1.98
2022-10-17T00:56:40.349Z,2.83
2022-10-17T01:00:43.507Z,2.80
2022-10-17T01:04:48.455Z,2.30
2022-10-17T01:08:50.465Z,1.90
2022-10-17T01:13:00.709Z,2.10
2022-10-17T01:17:18.433Z,1.92
2022-10-17T01:21:34.554Z,2.03
2022-10-17T01:25:51.727Z,2.10
2022-10-17T01:30:25.917Z,1.85
2022-10-17T01:34:47.183Z,1.98
2022-10-17T01:38:57.329Z,1.77
2022-10-17T01:43:19.737Z,1.90
2022-10-17T01:47:26.857Z,2.20
2022-10-17T01:51:58.976Z,1.90
2022-10-17T01:56:04.791Z,2.17
2022-10-17T02:00:13.620Z,2.00
2022-10-17T02:04:16.440Z,2.42
2022-10-17T02:08:26.808Z,1.90
2022-10-17T02:12:49.902Z,2.25
2022-10-17T02:17:05.655Z,2.20
2022-10-17T02:21:20.107Z,1.90
2022-10-17T02:25:40.124Z,1.92
2022-10-17T02:30:06.379Z,2.10
2022-10-17T02:34:34.690Z,2.13
2022-10-17T02:38:38.162Z,2.00
2022-10-17T02:42:43.886Z,2.00
2022-10-17T02:46:55.933Z,2.10
2022-10-17T02:51:12.781Z,1.92
2022-10-17T02:55:22.263Z,2.08
2022-10-17T02:59:28.583Z,2.08
2022-10-17T03:03:32.711Z,2.13
2022-10-17T03:07:36.853Z,2.40
2022-10-17T03:11:38.938Z,2.30
2022-10-17T03:15:42.877Z,2.22
2022-10-17T03:19:45.001Z,1.90
2022-10-17T03:23:47.144Z,2.10
2022-10-17T03:27:50.051Z,2.20
2022-10-17T03:31:52.058Z,1.98
2022-10-17T03:35:54.912Z,2.35
2022-10-17T03:39:57.348Z,2.13
2022-10-17T03:44:00.443Z,2.40
2022-10-17T03:48:03.232Z,2.17
2022-10-17T03:52:06.069Z,2.15
2022-10-17T03:56:15.692Z,2.30
2022-10-17T04:00:18.643Z,2.25
2022-10-17T04:04:29.492Z,2.15
2022-10-17T04:08:34.763Z,2.10
2022-10-17T04:12:43.500Z,2.30
2022-10-17T04:16:45.673Z,2.15
2022-10-17T04:20:52.659Z,2.15
2022-10-17T04:24:55.125Z,2.35
2022-10-17T04:29:08.528Z,2.40
2022-10-17T04:33:10.545Z,2.30
2022-10-17T04:37:12.608Z,2.10
2022-10-17T04:41:17.084Z,2.28
2022-10-17T04:45:19.271Z,1.90
2022-10-17T04:49:22.834Z,2.50
2022-10-17T04:53:30.619Z,2.28
2022-10-17T04:57:37.421Z,2.38
2022-10-17T05:01:49.844Z,1.92
2022-10-17T05:05:53.476Z,2.45
2022-10-17T05:09:55.566Z,2.50
2022-10-17T05:14:02.000Z,2.22
2022-10-17T05:18:06.778Z,2.42
2022-10-17T05:22:09.587Z,2.67
2022-10-17T05:26:12.453Z,2.80
2022-10-17T05:30:14.485Z,2.75
2022-10-17T05:34:16.580Z,2.50
2022-10-17T05:38:20.547Z,2.78
2022-10-17T05:42:24.427Z,3.08
2022-10-17T05:46:26.866Z,3.10
2022-10-17T05:50:29.081Z,2.80
2022-10-17T05:54:39.033Z,2.80
2022-10-17T05:58:52.579Z,2.70
2022-10-17T06:03:05.094Z,2.92
2022-10-17T06:07:07.173Z,2.58
2022-10-17T06:11:10.774Z,2.90
2022-10-17T06:15:13.854Z,2.40
2022-10-17T06:19:18.752Z,2.78
2022-10-17T06:23:21.794Z,2.50
2022-10-17T06:27:38.936Z,2.70
2022-10-17T06:31:41.288Z,2.75
2022-10-17T06:35:43.756Z,2.38
2022-10-17T06:39:45.917Z,2.40
2022-10-17T06:43:51.433Z,2.50
2022-10-17T06:48:19.481Z,2.58
2022-10-17T06:52:42.846Z,2.40
2022-10-17T06:57:03.202Z,2.53
2022-10-17T07:05:35.501Z,2.42
2022-10-17T07:09:37.764Z,2.20
2022-10-17T07:13:40.107Z,2.35
2022-10-17T07:17:42.214Z,2.40
2022-10-17T07:21:44.633Z,2.17
2022-10-17T07:25:47.695Z,2.30
2022-10-17T07:29:51.043Z,2.00
2022-10-17T07:34:00.299Z,2.13
2022-10-17T07:38:03.026Z,2.00
2022-10-17T07:42:05.344Z,2.22
2022-10-17T07:46:08.310Z,2.25
2022-10-17T07:50:10.459Z,2.40
2022-10-17T07:54:12.525Z,2.45
2022-10-17T07:58:14.894Z,2.28
2022-10-17T08:02:25.748Z,2.35
2022-10-17T08:06:27.757Z,2.40
2022-10-17T08:10:29.779Z,2.35
2022-10-17T08:14:31.818Z,2.50
2022-10-17T08:18:38.748Z,2.63
2022-10-17T08:22:40.939Z,2.88
2022-10-17T08:26:44.586Z,2.20
2022-10-17T08:30:48.157Z,2.00
2022-10-17T08:34:50.439Z,2.42
2022-10-17T08:38:53.118Z,2.42
2022-10-17T08:43:07.870Z,2.22
2022-10-17T08:47:15.557Z,2.50
2022-10-17T08:51:22.720Z,2.25
2022-10-17T08:55:34.096Z,2.30
2022-10-17T08:59:36.069Z,2.22
2022-10-17T09:04:09.192Z,1.85
2022-10-17T09:08:29.519Z,2.30
2022-10-17T09:12:50.539Z,1.90
2022-10-17T09:17:04.673Z,2.22
2022-10-17T09:21:19.401Z,2.00
2022-10-17T09:25:21.986Z,2.80
2022-10-17T09:29:29.598Z,2.25
2022-10-17T09:33:59.452Z,2.10
2022-10-17T09:38:01.468Z,1.90
2022-10-17T09:42:03.743Z,1.83
2022-10-17T09:46:24.489Z,1.70
2022-10-17T09:50:28.351Z,1.80
2022-10-17T09:54:41.359Z,1.70
2022-10-17T09:58:45.956Z,1.60
2022-10-17T10:02:48.053Z,1.90
2022-10-17T10:07:05.624Z,1.65
2022-10-17T10:19:38.848Z,1.67
2022-10-17T10:23:46.399Z,1.70
2022-10-17T10:27:48.543Z,1.80
2022-10-17T10:31:52.005Z,1.80
2022-10-17T10:36:01.822Z,1.90
2022-10-17T10:40:18.479Z,1.80
2022-10-17T10:44:25.062Z,1.90
2022-10-17T10:48:34.925Z,1.95
2022-10-17T10:52:53.638Z,1.83
2022-10-17T10:57:03.294Z,2.20
2022-10-17T11:01:19.174Z,1.70
2022-10-17T11:05:39.570Z,1.70
2022-10-17T11:10:14.012Z,2.00
2022-10-17T11:14:40.487Z,1.60
2022-10-17T11:18:52.507Z,1.60
2022-10-17T11:23:01.545Z,1.58
2022-10-17T11:27:05.740Z,1.50
2022-10-17T11:31:13.433Z,1.92
2022-10-17T11:35:26.614Z,2.00
2022-10-17T11:43:53.222Z,1.60
2022-10-17T11:52:31.541Z,1.55
2022-10-17T11:57:06.977Z,1.88
2022-10-17T12:01:31.248Z,1.73
2022-10-17T12:05:48.215Z,1.63
2022-10-17T12:10:07.437Z,1.40
2022-10-17T12:14:45.570Z,1.50
2022-10-17T12:22:53.047Z,1.27
2022-10-17T12:26:57.020Z,1.70
2022-10-17T12:31:02.862Z,1.77
2022-10-17T12:35:05.230Z,1.42
2022-10-17T12:39:11.621Z,1.98
2022-10-17T12:43:13.611Z,1.50
2022-10-17T12:47:15.593Z,1.50
2022-10-17T12:51:37.421Z,1.60
2022-10-17T12:55:40.305Z,1.65
2022-10-17T12:59:44.015Z,1.75
2022-10-17T13:03:48.878Z,1.92
2022-10-17T13:07:52.466Z,1.70
2022-10-17T13:11:57.438Z,1.75
2022-10-17T13:15:59.494Z,1.60
2022-10-17T13:20:01.839Z,1.70
2022-10-17T13:24:21.013Z,2.67
2022-10-17T13:28:23.750Z,2.17
2022-10-17T13:32:35.021Z,1.60
2022-10-17T13:36:37.110Z,1.70
2022-10-17T13:40:49.902Z,1.65
2022-10-17T13:44:52.513Z,1.70
2022-10-17T13:48:54.508Z,1.80
2022-10-17T13:53:16.996Z,1.80
2022-10-17T13:57:30.877Z,1.70
2022-10-17T14:01:33.981Z,2.00
2022-10-17T14:05:36.012Z,1.70
2022-10-17T14:09:38.023Z,1.95
2022-10-17T14:13:40.852Z,1.75
2022-10-17T14:17:45.597Z,1.50
2022-10-17T14:21:53.780Z,1.63
2022-10-17T14:26:07.921Z,1.80
2022-10-17T14:30:51.648Z,1.63
2022-10-17T14:34:52.029Z,1.50
2022-10-17T14:43:02.985Z,1.63
2022-10-17T14:47:38.132Z,1.48
2022-10-17T14:51:35.973Z,2.00
2022-10-17T14:55:59.305Z,1.50
2022-10-17T15:00:01.451Z,2.20
2022-10-17T15:04:03.777Z,1.95
2022-10-17T15:08:13.462Z,2.15
2022-10-17T15:12:18.736Z,1.92
2022-10-17T15:16:24.541Z,1.65
2022-10-17T15:20:29.400Z,2.45
2022-10-17T15:24:31.387Z,2.70
2022-10-17T15:28:33.410Z,2.20
2022-10-17T15:32:35.420Z,2.05
2022-10-17T15:36:41.986Z,1.60
2022-10-17T15:40:44.204Z,1.75
2022-10-17T15:44:49.446Z,1.77
2022-10-17T15:48:53.439Z,2.17
2022-10-17T15:52:55.425Z,2.00
2022-10-17T15:56:57.930Z,2.08
2022-10-17T16:01:00.048Z,2.05
2022-10-17T16:05:02.090Z,1.98
2022-10-17T16:09:04.127Z,2.50
2022-10-17T16:13:06.154Z,2.50
2022-10-17T16:17:26.274Z,2.15
2022-10-17T16:21:32.451Z,2.33
2022-10-17T16:25:34.950Z,2.60
2022-10-17T16:29:36.938Z,2.33
2022-10-17T16:33:38.923Z,1.90
2022-10-17T16:37:40.941Z,1.73
2022-10-17T16:41:43.068Z,1.85
2022-10-17T16:45:45.106Z,2.10
2022-10-17T16:49:47.258Z,2.40
2022-10-17T16:53:52.689Z,2.30
2022-10-17T16:57:54.708Z,4.70
2022-10-17T17:01:56.783Z,4.00
2022-10-17T17:05:58.781Z,3.97
2022-10-17T17:10:00.820Z,3.30
2022-10-17T17:14:04.270Z,3.10
2022-10-17T17:18:06.797Z,3.00
2022-10-17T17:22:09.018Z,3.55
2022-10-17T17:26:20.396Z,2.72
2022-10-17T17:30:22.473Z,2.60
2022-10-17T17:34:24.641Z,3.20
2022-10-17T17:38:29.589Z,3.70
2022-10-17T17:42:31.580Z,3.47
2022-10-17T17:46:33.645Z,4.60
2022-10-17T17:50:40.300Z,3.10
2022-10-17T17:54:42.335Z,3.90
2022-10-17T17:58:45.867Z,3.63
2022-10-17T18:02:47.876Z,3.22
2022-10-17T18:06:49.908Z,3.28
2022-10-17T18:10:56.389Z,3.38
2022-10-17T18:14:58.420Z,3.90
2022-10-17T18:19:06.673Z,3.17
2022-10-17T18:23:10.133Z,3.17
2022-10-17T18:27:15.817Z,3.40
2022-10-17T18:31:24.288Z,5.95
2022-10-17T18:35:26.299Z,4.50
2022-10-17T18:39:28.628Z,4.43
2022-10-17T18:43:32.816Z,3.50
2022-10-17T18:47:34.801Z,3.13
2022-10-17T18:51:37.050Z,2.97
2022-10-17T18:55:39.581Z,3.80
2022-10-17T18:59:41.689Z,3.20
2022-10-17T19:03:45.833Z,3.13
2022-10-17T19:07:47.901Z,5.22
2022-10-17T19:11:50.009Z,5.22
2022-10-17T19:15:52.058Z,4.28
2022-10-17T19:19:55.061Z,6.88
2022-10-17T19:24:03.760Z,6.53
2022-10-17T19:28:05.779Z,5.15
2022-10-17T19:32:15.580Z,4.63
2022-10-17T19:36:21.713Z,4.47
2022-10-17T19:40:23.729Z,4.65
2022-10-17T19:44:26.462Z,4.82
2022-10-17T19:48:32.485Z,4.30
2022-10-17T19:52:34.571Z,4.07
2022-10-17T19:56:43.002Z,3.53
2022-10-17T20:00:50.428Z,3.25
2022-10-17T20:04:54.630Z,3.80
2022-10-17T20:09:17.079Z,3.50
2022-10-17T20:13:19.602Z,3.65
2022-10-17T20:17:21.671Z,3.65
2022-10-17T20:21:31.435Z,3.42
2022-10-17T20:25:34.471Z,3.60
2022-10-17T20:29:36.452Z,3.97
2022-10-17T20:33:38.491Z,3.60
2022-10-17T20:37:42.662Z,4.28
2022-10-17T20:41:45.582Z,3.67
2022-10-17T20:45:51.276Z,3.75
2022-10-17T20:49:54.051Z,3.33
2022-10-17T20:57:58.840Z,3.47
2022-10-17T21:02:00.910Z,3.80
2022-10-17T21:06:03.823Z,3.60
2022-10-17T21:10:30.694Z,3.47
2022-10-17T21:14:28.615Z,3.53
2022-10-17T21:18:30.605Z,3.88
2022-10-17T21:22:35.909Z,4.00
2022-10-17T21:26:39.473Z,4.28
2022-10-17T21:30:41.459Z,3.97
2022-10-17T21:34:43.492Z,3.60
2022-10-17T21:38:47.225Z,3.53
2022-10-17T21:42:49.212Z,3.30
2022-10-17T21:46:52.121Z,3.88
2022-10-17T21:51:00.587Z,3.70
2022-10-17T21:55:02.643Z,3.15
2022-10-17T21:59:05.097Z,3.47
2022-10-17T22:03:08.515Z,3.78
2022-10-17T22:07:10.507Z,4.00
2022-10-17T22:11:16.111Z,3.50
2022-10-17T22:15:18.126Z,3.72
2022-10-17T22:19:24.652Z,3.58
2022-10-17T22:23:26.696Z,3.77
2022-10-17T22:27:29.059Z,4.30
2022-10-17T22:31:31.445Z,3.45
2022-10-17T22:35:33.412Z,3.80
2022-10-17T22:39:35.421Z,3.33
2022-10-17T22:43:37.693Z,3.40
2022-10-17T22:47:39.700Z,3.30
2022-10-17T22:51:41.701Z,2.85
2022-10-17T22:55:53.368Z,3.33
2022-10-17T22:59:55.364Z,4.03
2022-10-17T23:03:57.456Z,3.72
2022-10-17T23:07:59.479Z,3.00
2022-10-17T23:12:01.503Z,3.03
2022-10-17T23:16:03.867Z,2.92
2022-10-17T23:20:06.470Z,3.13
2022-10-17T23:24:08.580Z,2.90
2022-10-17T23:28:11.174Z,2.45
2022-10-17T23:32:13.157Z,2.95
2022-10-17T23:36:17.060Z,3.50
2022-10-17T23:40:19.237Z,3.10
2022-10-17T23:44:22.398Z,3.15
2022-10-17T23:48:24.377Z,2.97
2022-10-17T23:52:26.394Z,3.08
2022-10-17T23:56:28.797Z,2.95
